sensor_id;sensor_type;location;lat;lon;timestamp;temperature;humidity
6758;DHT22;3416;53.074;8.822;2023-02-28T00:00:10;5.60;99.90
6758;DHT22;3416;53.074;8.822;2023-02-28T00:02:39;5.60;99.90
6758;DHT22;3416;53.074;8.822;2023-02-28T00:05:07;5.70;99.90
6758;DHT22;3416;53.074;8.822;2023-02-28T00:07:35;5.70;99.90
6758;DHT22;3416;53.074;8.822;2023-02-28T00:10:03;5.70;99.90
6758;DHT22;3416;53.074;8.822;2023-02-28T00:12:33;5.70;99.90
6758;DHT22;3416;53.074;8.822;2023-02-28T00:15:01;5.60;99.90
6758;DHT22;3416;53.074;8.822;2023-02-28T00:17:28;5.60;99.90
6758;DHT22;3416;53.074;8.822;2023-02-28T00:19:55;5.60;99.90
6758;DHT22;3416;53.074;8.822;2023-02-28T00:22:22;5.60;99.90
6758;DHT22;3416;53.074;8.822;2023-02-28T00:24:49;5.70;99.90
6758;DHT22;3416;53.074;8.822;2023-02-28T00:27:18;5.60;99.90
6758;DHT22;3416;53.074;8.822;2023-02-28T00:29:46;5.50;99.90
6758;DHT22;3416;53.074;8.822;2023-02-28T00:32:16;5.60;99.90
6758;DHT22;3416;53.074;8.822;2023-02-28T00:34:44;5.60;99.90
6758;DHT22;3416;53.074;8.822;2023-02-28T00:37:12;5.60;99.90
6758;DHT22;3416;53.074;8.822;2023-02-28T00:39:39;5.50;99.90
6758;DHT22;3416;53.074;8.822;2023-02-28T00:42:08;5.60;99.90
6758;DHT22;3416;53.074;8.822;2023-02-28T00:44:35;5.60;99.90
6758;DHT22;3416;53.074;8.822;2023-02-28T00:47:02;5.60;99.90
6758;DHT22;3416;53.074;8.822;2023-02-28T00:49:30;5.40;99.90
6758;DHT22;3416;53.074;8.822;2023-02-28T00:51:57;5.40;99.90
6758;DHT22;3416;53.074;8.822;2023-02-28T00:54:24;5.40;99.90
6758;DHT22;3416;53.074;8.822;2023-02-28T00:56:51;5.30;99.90
6758;DHT22;3416;53.074;8.822;2023-02-28T00:59:18;5.20;99.90
6758;DHT22;3416;53.074;8.822;2023-02-28T01:01:46;5.10;99.90
6758;DHT22;3416;53.074;8.822;2023-02-28T01:04:13;5.10;99.90
6758;DHT22;3416;53.074;8.822;2023-02-28T01:06:41;5.10;99.90
6758;DHT22;3416;53.074;8.822;2023-02-28T01:09:09;5.00;99.90
6758;DHT22;3416;53.074;8.822;2023-02-28T01:11:36;5.10;99.90
6758;DHT22;3416;53.074;8.822;2023-02-28T01:14:04;5.00;99.90
6758;DHT22;3416;53.074;8.822;2023-02-28T01:16:31;5.00;99.90
6758;DHT22;3416;53.074;8.822;2023-02-28T01:18:58;5.10;99.90
6758;DHT22;3416;53.074;8.822;2023-02-28T01:21:25;5.10;99.90
6758;DHT22;3416;53.074;8.822;2023-02-28T01:23:56;5.10;99.90
6758;DHT22;3416;53.074;8.822;2023-02-28T01:26:23;5.20;99.90
6758;DHT22;3416;53.074;8.822;2023-02-28T01:28:51;5.10;99.90
6758;DHT22;3416;53.074;8.822;2023-02-28T01:31:20;5.10;99.90
6758;DHT22;3416;53.074;8.822;2023-02-28T01:33:47;5.00;99.90
6758;DHT22;3416;53.074;8.822;2023-02-28T01:36:16;5.00;99.90
6758;DHT22;3416;53.074;8.822;2023-02-28T01:38:44;4.90;99.90
6758;DHT22;3416;53.074;8.822;2023-02-28T01:41:16;4.90;99.90
6758;DHT22;3416;53.074;8.822;2023-02-28T01:43:56;4.90;99.90
6758;DHT22;3416;53.074;8.822;2023-02-28T01:46:23;4.90;99.90
6758;DHT22;3416;53.074;8.822;2023-02-28T01:48:53;4.80;99.90
6758;DHT22;3416;53.074;8.822;2023-02-28T01:51:22;4.80;99.90
6758;DHT22;3416;53.074;8.822;2023-02-28T01:53:54;4.70;99.90
6758;DHT22;3416;53.074;8.822;2023-02-28T01:56:28;4.70;99.90
6758;DHT22;3416;53.074;8.822;2023-02-28T01:58:56;4.60;99.90
6758;DHT22;3416;53.074;8.822;2023-02-28T02:01:27;4.80;99.90
6758;DHT22;3416;53.074;8.822;2023-02-28T02:03:57;4.70;99.90
6758;DHT22;3416;53.074;8.822;2023-02-28T02:06:27;4.60;99.90
6758;DHT22;3416;53.074;8.822;2023-02-28T02:08:55;4.50;99.90
6758;DHT22;3416;53.074;8.822;2023-02-28T02:11:24;4.50;99.90
6758;DHT22;3416;53.074;8.822;2023-02-28T02:17:02;4.50;99.90
6758;DHT22;3416;53.074;8.822;2023-02-28T02:20:12;4.40;99.90
6758;DHT22;3416;53.074;8.822;2023-02-28T02:23:15;4.30;99.90
6758;DHT22;3416;53.074;8.822;2023-02-28T02:25:53;4.30;99.90
6758;DHT22;3416;53.074;8.822;2023-02-28T02:28:56;4.20;99.90
6758;DHT22;3416;53.074;8.822;2023-02-28T02:31:50;4.20;99.90
6758;DHT22;3416;53.074;8.822;2023-02-28T02:37:23;4.30;99.90
6758;DHT22;3416;53.074;8.822;2023-02-28T02:40:01;4.30;99.90
6758;DHT22;3416;53.074;8.822;2023-02-28T02:42:37;4.10;99.90
6758;DHT22;3416;53.074;8.822;2023-02-28T02:45:08;4.20;99.90
6758;DHT22;3416;53.074;8.822;2023-02-28T02:47:37;3.90;99.90
6758;DHT22;3416;53.074;8.822;2023-02-28T02:50:11;3.90;99.90
6758;DHT22;3416;53.074;8.822;2023-02-28T02:52:42;3.80;99.90
6758;DHT22;3416;53.074;8.822;2023-02-28T02:55:12;3.90;99.90
6758;DHT22;3416;53.074;8.822;2023-02-28T02:57:43;3.80;99.90
6758;DHT22;3416;53.074;8.822;2023-02-28T03:00:14;3.80;99.90
6758;DHT22;3416;53.074;8.822;2023-02-28T03:02:44;3.80;99.90
6758;DHT22;3416;53.074;8.822;2023-02-28T03:05:19;3.80;99.90
6758;DHT22;3416;53.074;8.822;2023-02-28T03:07:46;3.70;99.90
6758;DHT22;3416;53.074;8.822;2023-02-28T03:10:31;3.70;99.90
6758;DHT22;3416;53.074;8.822;2023-02-28T03:16:13;3.80;99.90
6758;DHT22;3416;53.074;8.822;2023-02-28T03:18:51;3.80;99.90
6758;DHT22;3416;53.074;8.822;2023-02-28T03:21:27;3.90;99.90
6758;DHT22;3416;53.074;8.822;2023-02-28T03:24:01;3.90;99.90
6758;DHT22;3416;53.074;8.822;2023-02-28T03:26:36;3.80;99.90
6758;DHT22;3416;53.074;8.822;2023-02-28T03:29:10;3.80;99.90
6758;DHT22;3416;53.074;8.822;2023-02-28T03:31:46;3.80;99.90
6758;DHT22;3416;53.074;8.822;2023-02-28T03:34:19;3.80;99.90
6758;DHT22;3416;53.074;8.822;2023-02-28T03:36:52;3.80;99.90
6758;DHT22;3416;53.074;8.822;2023-02-28T03:39:21;3.80;99.90
6758;DHT22;3416;53.074;8.822;2023-02-28T03:41:53;3.60;99.90
6758;DHT22;3416;53.074;8.822;2023-02-28T03:44:27;3.70;99.90
6758;DHT22;3416;53.074;8.822;2023-02-28T03:47:00;3.70;99.90
6758;DHT22;3416;53.074;8.822;2023-02-28T03:49:31;3.60;99.90
6758;DHT22;3416;53.074;8.822;2023-02-28T03:52:02;3.50;99.90
6758;DHT22;3416;53.074;8.822;2023-02-28T03:54:33;3.30;99.90
6758;DHT22;3416;53.074;8.822;2023-02-28T03:57:05;3.10;99.90
6758;DHT22;3416;53.074;8.822;2023-02-28T03:59:36;3.10;99.90
6758;DHT22;3416;53.074;8.822;2023-02-28T04:02:04;3.00;99.90
6758;DHT22;3416;53.074;8.822;2023-02-28T04:04:31;3.00;99.90
6758;DHT22;3416;53.074;8.822;2023-02-28T04:07:05;3.20;99.90
6758;DHT22;3416;53.074;8.822;2023-02-28T04:09:32;3.10;99.90
6758;DHT22;3416;53.074;8.822;2023-02-28T04:11:59;3.10;99.90
6758;DHT22;3416;53.074;8.822;2023-02-28T04:14:26;3.20;99.90
6758;DHT22;3416;53.074;8.822;2023-02-28T04:16:53;3.20;99.90
6758;DHT22;3416;53.074;8.822;2023-02-28T04:19:20;3.10;99.90
6758;DHT22;3416;53.074;8.822;2023-02-28T04:21:49;3.20;99.90
6758;DHT22;3416;53.074;8.822;2023-02-28T04:24:19;3.20;99.90
6758;DHT22;3416;53.074;8.822;2023-02-28T04:26:48;3.20;99.90
6758;DHT22;3416;53.074;8.822;2023-02-28T04:29:20;3.20;99.90
6758;DHT22;3416;53.074;8.822;2023-02-28T04:31:47;3.20;99.90
6758;DHT22;3416;53.074;8.822;2023-02-28T04:34:15;3.10;99.90
6758;DHT22;3416;53.074;8.822;2023-02-28T04:36:42;3.00;99.90
6758;DHT22;3416;53.074;8.822;2023-02-28T04:39:09;3.10;99.90
6758;DHT22;3416;53.074;8.822;2023-02-28T04:41:37;3.00;99.90
6758;DHT22;3416;53.074;8.822;2023-02-28T04:44:04;3.00;99.90
6758;DHT22;3416;53.074;8.822;2023-02-28T04:46:31;3.10;99.90
6758;DHT22;3416;53.074;8.822;2023-02-28T04:48:58;3.10;99.90
6758;DHT22;3416;53.074;8.822;2023-02-28T04:51:25;3.10;99.90
6758;DHT22;3416;53.074;8.822;2023-02-28T04:53:52;3.00;99.90
6758;DHT22;3416;53.074;8.822;2023-02-28T04:56:19;3.00;99.90
6758;DHT22;3416;53.074;8.822;2023-02-28T04:58:48;2.70;99.90
6758;DHT22;3416;53.074;8.822;2023-02-28T05:01:19;2.90;99.90
6758;DHT22;3416;53.074;8.822;2023-02-28T05:03:47;2.80;99.90
6758;DHT22;3416;53.074;8.822;2023-02-28T05:06:15;2.80;99.90
6758;DHT22;3416;53.074;8.822;2023-02-28T05:08:41;2.70;99.90
6758;DHT22;3416;53.074;8.822;2023-02-28T05:11:14;2.70;99.90
6758;DHT22;3416;53.074;8.822;2023-02-28T05:13:41;2.70;99.90
6758;DHT22;3416;53.074;8.822;2023-02-28T05:16:09;2.60;99.90
6758;DHT22;3416;53.074;8.822;2023-02-28T05:18:36;2.60;99.90
6758;DHT22;3416;53.074;8.822;2023-02-28T05:21:04;2.60;99.90
6758;DHT22;3416;53.074;8.822;2023-02-28T05:23:32;2.50;99.90
6758;DHT22;3416;53.074;8.822;2023-02-28T05:25:59;2.40;99.90
6758;DHT22;3416;53.074;8.822;2023-02-28T05:28:26;2.30;99.90
6758;DHT22;3416;53.074;8.822;2023-02-28T05:30:53;2.30;99.90
6758;DHT22;3416;53.074;8.822;2023-02-28T05:33:21;2.20;99.90
6758;DHT22;3416;53.074;8.822;2023-02-28T05:35:48;2.10;99.90
6758;DHT22;3416;53.074;8.822;2023-02-28T05:38:15;2.20;99.90
6758;DHT22;3416;53.074;8.822;2023-02-28T05:40:45;2.10;99.90
6758;DHT22;3416;53.074;8.822;2023-02-28T05:43:12;2.20;99.90
6758;DHT22;3416;53.074;8.822;2023-02-28T05:45:39;2.20;99.90
6758;DHT22;3416;53.074;8.822;2023-02-28T05:48:06;2.10;99.90
6758;DHT22;3416;53.074;8.822;2023-02-28T05:50:36;2.10;99.90
6758;DHT22;3416;53.074;8.822;2023-02-28T05:53:02;2.10;99.90
6758;DHT22;3416;53.074;8.822;2023-02-28T05:55:30;2.00;99.90
6758;DHT22;3416;53.074;8.822;2023-02-28T05:57:57;1.90;99.90
6758;DHT22;3416;53.074;8.822;2023-02-28T06:00:25;1.90;99.90
6758;DHT22;3416;53.074;8.822;2023-02-28T06:02:52;1.90;99.90
6758;DHT22;3416;53.074;8.822;2023-02-28T06:05:22;1.90;99.90
6758;DHT22;3416;53.074;8.822;2023-02-28T06:07:50;1.70;99.90
6758;DHT22;3416;53.074;8.822;2023-02-28T06:10:17;1.70;99.90
6758;DHT22;3416;53.074;8.822;2023-02-28T06:12:45;1.60;99.90
6758;DHT22;3416;53.074;8.822;2023-02-28T06:15:14;1.60;99.90
6758;DHT22;3416;53.074;8.822;2023-02-28T06:17:42;1.60;99.90
6758;DHT22;3416;53.074;8.822;2023-02-28T06:20:10;1.60;99.90
6758;DHT22;3416;53.074;8.822;2023-02-28T06:22:39;1.50;99.90
6758;DHT22;3416;53.074;8.822;2023-02-28T06:25:10;1.30;99.90
6758;DHT22;3416;53.074;8.822;2023-02-28T06:27:38;1.50;99.90
6758;DHT22;3416;53.074;8.822;2023-02-28T06:30:06;1.50;99.90
6758;DHT22;3416;53.074;8.822;2023-02-28T06:32:33;1.50;99.90
6758;DHT22;3416;53.074;8.822;2023-02-28T06:35:01;1.50;99.90
6758;DHT22;3416;53.074;8.822;2023-02-28T06:37:30;1.50;99.90
6758;DHT22;3416;53.074;8.822;2023-02-28T06:39:57;1.50;99.90
6758;DHT22;3416;53.074;8.822;2023-02-28T06:42:26;1.60;99.90
6758;DHT22;3416;53.074;8.822;2023-02-28T06:44:54;1.60;99.90
6758;DHT22;3416;53.074;8.822;2023-02-28T06:47:21;1.60;99.90
6758;DHT22;3416;53.074;8.822;2023-02-28T06:49:51;1.70;99.90
6758;DHT22;3416;53.074;8.822;2023-02-28T06:52:20;1.70;99.90
6758;DHT22;3416;53.074;8.822;2023-02-28T06:54:48;1.70;99.90
6758;DHT22;3416;53.074;8.822;2023-02-28T06:57:27;1.70;99.90
6758;DHT22;3416;53.074;8.822;2023-02-28T06:59:57;1.70;99.90
6758;DHT22;3416;53.074;8.822;2023-02-28T07:02:24;1.70;99.90
6758;DHT22;3416;53.074;8.822;2023-02-28T07:04:52;1.90;99.90
6758;DHT22;3416;53.074;8.822;2023-02-28T07:07:20;2.00;99.90
6758;DHT22;3416;53.074;8.822;2023-02-28T07:09:47;2.10;99.90
6758;DHT22;3416;53.074;8.822;2023-02-28T07:12:13;2.30;99.90
6758;DHT22;3416;53.074;8.822;2023-02-28T07:14:42;2.50;99.90
6758;DHT22;3416;53.074;8.822;2023-02-28T07:17:09;3.00;99.90
6758;DHT22;3416;53.074;8.822;2023-02-28T07:19:38;3.90;99.90
6758;DHT22;3416;53.074;8.822;2023-02-28T07:22:07;5.20;99.90
6758;DHT22;3416;53.074;8.822;2023-02-28T07:24:43;6.40;99.90
6758;DHT22;3416;53.074;8.822;2023-02-28T07:27:14;7.00;99.90
6758;DHT22;3416;53.074;8.822;2023-02-28T07:29:51;7.70;99.90
6758;DHT22;3416;53.074;8.822;2023-02-28T07:32:21;8.70;99.90
6758;DHT22;3416;53.074;8.822;2023-02-28T07:34:50;9.40;98.00
6758;DHT22;3416;53.074;8.822;2023-02-28T07:37:31;10.20;94.00
6758;DHT22;3416;53.074;8.822;2023-02-28T07:40:02;11.10;91.70
6758;DHT22;3416;53.074;8.822;2023-02-28T07:42:45;11.40;90.20
6758;DHT22;3416;53.074;8.822;2023-02-28T07:45:35;11.80;88.40
6758;DHT22;3416;53.074;8.822;2023-02-28T07:48:18;12.00;86.60
6758;DHT22;3416;53.074;8.822;2023-02-28T07:51:01;12.00;85.70
6758;DHT22;3416;53.074;8.822;2023-02-28T07:53:30;12.10;85.20
6758;DHT22;3416;53.074;8.822;2023-02-28T07:56:05;12.40;84.10
6758;DHT22;3416;53.074;8.822;2023-02-28T07:58:34;12.80;82.80
6758;DHT22;3416;53.074;8.822;2023-02-28T08:01:07;13.10;80.90
6758;DHT22;3416;53.074;8.822;2023-02-28T08:03:35;13.50;80.20
6758;DHT22;3416;53.074;8.822;2023-02-28T08:06:03;13.70;79.10
6758;DHT22;3416;53.074;8.822;2023-02-28T08:08:30;13.90;77.90
6758;DHT22;3416;53.074;8.822;2023-02-28T08:10:58;14.00;77.20
6758;DHT22;3416;53.074;8.822;2023-02-28T08:13:26;14.10;76.30
6758;DHT22;3416;53.074;8.822;2023-02-28T08:15:54;14.50;76.20
6758;DHT22;3416;53.074;8.822;2023-02-28T08:18:22;15.00;74.80
6758;DHT22;3416;53.074;8.822;2023-02-28T08:20:49;14.80;74.00
6758;DHT22;3416;53.074;8.822;2023-02-28T08:23:17;14.80;74.40
6758;DHT22;3416;53.074;8.822;2023-02-28T08:25:45;14.80;73.40
6758;DHT22;3416;53.074;8.822;2023-02-28T08:28:19;15.00;73.70
6758;DHT22;3416;53.074;8.822;2023-02-28T08:30:46;14.90;73.00
6758;DHT22;3416;53.074;8.822;2023-02-28T08:33:13;15.00;73.10
6758;DHT22;3416;53.074;8.822;2023-02-28T08:35:42;15.20;72.60
6758;DHT22;3416;53.074;8.822;2023-02-28T08:38:09;15.00;72.00
6758;DHT22;3416;53.074;8.822;2023-02-28T08:40:36;15.30;71.40
6758;DHT22;3416;53.074;8.822;2023-02-28T08:43:03;15.40;70.70
6758;DHT22;3416;53.074;8.822;2023-02-28T08:45:30;15.30;70.40
6758;DHT22;3416;53.074;8.822;2023-02-28T08:47:57;15.50;70.20
6758;DHT22;3416;53.074;8.822;2023-02-28T08:50:24;15.00;68.10
6758;DHT22;3416;53.074;8.822;2023-02-28T08:52:52;15.00;69.30
6758;DHT22;3416;53.074;8.822;2023-02-28T08:55:19;14.50;68.20
6758;DHT22;3416;53.074;8.822;2023-02-28T08:57:46;14.10;68.50
6758;DHT22;3416;53.074;8.822;2023-02-28T09:00:14;14.00;69.20
6758;DHT22;3416;53.074;8.822;2023-02-28T09:02:44;14.30;69.20
6758;DHT22;3416;53.074;8.822;2023-02-28T09:05:14;14.50;68.20
6758;DHT22;3416;53.074;8.822;2023-02-28T09:07:40;14.80;67.50
6758;DHT22;3416;53.074;8.822;2023-02-28T09:10:14;15.10;66.60
6758;DHT22;3416;53.074;8.822;2023-02-28T09:12:41;15.40;65.70
6758;DHT22;3416;53.074;8.822;2023-02-28T09:15:11;15.40;65.30
6758;DHT22;3416;53.074;8.822;2023-02-28T09:17:38;16.30;64.70
6758;DHT22;3416;53.074;8.822;2023-02-28T09:20:06;15.90;62.40
6758;DHT22;3416;53.074;8.822;2023-02-28T09:22:34;15.70;62.60
6758;DHT22;3416;53.074;8.822;2023-02-28T09:25:01;15.70;62.90
6758;DHT22;3416;53.074;8.822;2023-02-28T09:27:29;16.40;63.80
6758;DHT22;3416;53.074;8.822;2023-02-28T09:29:57;16.40;61.10
6758;DHT22;3416;53.074;8.822;2023-02-28T09:32:24;16.80;61.00
6758;DHT22;3416;53.074;8.822;2023-02-28T09:34:52;16.80;59.80
6758;DHT22;3416;53.074;8.822;2023-02-28T09:37:19;16.00;59.80
6758;DHT22;3416;53.074;8.822;2023-02-28T09:39:46;15.70;59.60
6758;DHT22;3416;53.074;8.822;2023-02-28T09:42:23;16.40;59.40
6758;DHT22;3416;53.074;8.822;2023-02-28T09:44:56;16.90;58.60
6758;DHT22;3416;53.074;8.822;2023-02-28T09:47:29;17.00;59.70
6758;DHT22;3416;53.074;8.822;2023-02-28T09:49:58;16.70;59.70
6758;DHT22;3416;53.074;8.822;2023-02-28T09:52:29;16.60;60.00
6758;DHT22;3416;53.074;8.822;2023-02-28T09:55:00;16.90;59.00
6758;DHT22;3416;53.074;8.822;2023-02-28T09:57:33;17.30;57.40
6758;DHT22;3416;53.074;8.822;2023-02-28T10:00:10;17.90;56.70
6758;DHT22;3416;53.074;8.822;2023-02-28T10:02:58;18.70;54.60
6758;DHT22;3416;53.074;8.822;2023-02-28T10:05:31;17.60;54.80
6758;DHT22;3416;53.074;8.822;2023-02-28T10:08:10;17.10;55.70
6758;DHT22;3416;53.074;8.822;2023-02-28T10:10:40;16.20;56.20
6758;DHT22;3416;53.074;8.822;2023-02-28T10:13:23;16.50;56.10
6758;DHT22;3416;53.074;8.822;2023-02-28T10:15:56;16.70;55.10
6758;DHT22;3416;53.074;8.822;2023-02-28T10:18:28;16.30;55.20
6758;DHT22;3416;53.074;8.822;2023-02-28T10:20:57;16.50;55.30
6758;DHT22;3416;53.074;8.822;2023-02-28T10:23:28;15.70;55.80
6758;DHT22;3416;53.074;8.822;2023-02-28T10:26:00;14.70;56.70
6758;DHT22;3416;53.074;8.822;2023-02-28T10:28:29;14.10;58.00
6758;DHT22;3416;53.074;8.822;2023-02-28T10:30:59;14.20;59.80
6758;DHT22;3416;53.074;8.822;2023-02-28T10:33:30;14.40;59.30
6758;DHT22;3416;53.074;8.822;2023-02-28T10:35:58;14.00;58.50
6758;DHT22;3416;53.074;8.822;2023-02-28T10:38:27;13.90;59.30
6758;DHT22;3416;53.074;8.822;2023-02-28T10:41:04;14.00;60.10
6758;DHT22;3416;53.074;8.822;2023-02-28T10:43:32;13.40;59.60
6758;DHT22;3416;53.074;8.822;2023-02-28T10:46:02;12.70;61.20
6758;DHT22;3416;53.074;8.822;2023-02-28T10:48:37;12.50;61.50
6758;DHT22;3416;53.074;8.822;2023-02-28T10:51:05;12.40;62.20
6758;DHT22;3416;53.074;8.822;2023-02-28T10:53:45;12.40;62.10
6758;DHT22;3416;53.074;8.822;2023-02-28T10:56:18;12.50;62.40
6758;DHT22;3416;53.074;8.822;2023-02-28T10:58:59;12.60;62.40
6758;DHT22;3416;53.074;8.822;2023-02-28T11:01:44;12.20;61.90
6758;DHT22;3416;53.074;8.822;2023-02-28T11:04:18;11.90;62.70
6758;DHT22;3416;53.074;8.822;2023-02-28T11:06:56;11.80;64.50
6758;DHT22;3416;53.074;8.822;2023-02-28T11:09:27;11.70;64.00
6758;DHT22;3416;53.074;8.822;2023-02-28T11:11:56;11.20;64.60
6758;DHT22;3416;53.074;8.822;2023-02-28T11:14:26;11.00;65.70
6758;DHT22;3416;53.074;8.822;2023-02-28T11:17:03;10.60;66.10
6758;DHT22;3416;53.074;8.822;2023-02-28T11:19:41;10.40;67.10
6758;DHT22;3416;53.074;8.822;2023-02-28T11:22:17;10.50;67.80
6758;DHT22;3416;53.074;8.822;2023-02-28T11:24:48;10.30;67.40
6758;DHT22;3416;53.074;8.822;2023-02-28T11:27:43;10.20;67.70
6758;DHT22;3416;53.074;8.822;2023-02-28T11:30:31;10.00;68.70
6758;DHT22;3416;53.074;8.822;2023-02-28T11:35:48;9.90;70.10
6758;DHT22;3416;53.074;8.822;2023-02-28T11:38:23;10.00;69.60
6758;DHT22;3416;53.074;8.822;2023-02-28T11:41:03;10.00;69.50
6758;DHT22;3416;53.074;8.822;2023-02-28T11:43:45;9.90;70.90
6758;DHT22;3416;53.074;8.822;2023-02-28T11:46:26;9.90;70.50
6758;DHT22;3416;53.074;8.822;2023-02-28T11:49:07;9.80;70.80
6758;DHT22;3416;53.074;8.822;2023-02-28T11:51:47;9.70;71.00
6758;DHT22;3416;53.074;8.822;2023-02-28T11:54:42;9.50;71.60
6758;DHT22;3416;53.074;8.822;2023-02-28T12:00:19;9.50;72.10
6758;DHT22;3416;53.074;8.822;2023-02-28T12:02:59;9.30;73.20
6758;DHT22;3416;53.074;8.822;2023-02-28T12:05:34;9.40;73.00
6758;DHT22;3416;53.074;8.822;2023-02-28T12:08:15;9.50;72.60
6758;DHT22;3416;53.074;8.822;2023-02-28T12:10:54;9.60;72.00
6758;DHT22;3416;53.074;8.822;2023-02-28T12:13:32;9.70;72.10
6758;DHT22;3416;53.074;8.822;2023-02-28T12:16:25;9.60;72.50
6758;DHT22;3416;53.074;8.822;2023-02-28T12:19:05;9.50;72.40
6758;DHT22;3416;53.074;8.822;2023-02-28T12:21:48;9.60;72.30
6758;DHT22;3416;53.074;8.822;2023-02-28T12:24:39;9.20;72.80
6758;DHT22;3416;53.074;8.822;2023-02-28T12:27:13;9.10;73.10
6758;DHT22;3416;53.074;8.822;2023-02-28T12:29:47;9.00;73.30
6758;DHT22;3416;53.074;8.822;2023-02-28T12:32:19;8.90;73.30
6758;DHT22;3416;53.074;8.822;2023-02-28T12:34:52;8.90;72.00
6758;DHT22;3416;53.074;8.822;2023-02-28T12:37:25;9.00;71.60
6758;DHT22;3416;53.074;8.822;2023-02-28T12:39:59;9.00;70.80
6758;DHT22;3416;53.074;8.822;2023-02-28T12:42:33;9.00;70.80
6758;DHT22;3416;53.074;8.822;2023-02-28T12:45:07;8.90;71.30
6758;DHT22;3416;53.074;8.822;2023-02-28T12:47:42;8.70;72.10
6758;DHT22;3416;53.074;8.822;2023-02-28T12:50:11;8.90;73.10
6758;DHT22;3416;53.074;8.822;2023-02-28T12:52:48;8.90;73.40
6758;DHT22;3416;53.074;8.822;2023-02-28T12:55:23;8.80;72.90
6758;DHT22;3416;53.074;8.822;2023-02-28T12:58:01;8.90;73.70
6758;DHT22;3416;53.074;8.822;2023-02-28T13:00:36;8.90;72.90
6758;DHT22;3416;53.074;8.822;2023-02-28T13:06:29;9.00;71.40
6758;DHT22;3416;53.074;8.822;2023-02-28T13:09:09;9.10;69.10
6758;DHT22;3416;53.074;8.822;2023-02-28T13:11:44;9.00;68.60
6758;DHT22;3416;53.074;8.822;2023-02-28T13:14:24;8.90;68.90
6758;DHT22;3416;53.074;8.822;2023-02-28T13:16:58;8.90;69.90
6758;DHT22;3416;53.074;8.822;2023-02-28T13:19:29;8.80;70.40
6758;DHT22;3416;53.074;8.822;2023-02-28T13:21:57;8.70;70.60
6758;DHT22;3416;53.074;8.822;2023-02-28T13:24:45;8.60;70.30
6758;DHT22;3416;53.074;8.822;2023-02-28T13:27:25;8.50;70.90
6758;DHT22;3416;53.074;8.822;2023-02-28T13:29:58;8.60;71.00
6758;DHT22;3416;53.074;8.822;2023-02-28T13:32:36;8.70;70.40
6758;DHT22;3416;53.074;8.822;2023-02-28T13:35:35;8.70;70.30
6758;DHT22;3416;53.074;8.822;2023-02-28T13:44:09;8.50;71.00
6758;DHT22;3416;53.074;8.822;2023-02-28T13:49:43;8.60;71.10
6758;DHT22;3416;53.074;8.822;2023-02-28T13:52:14;8.50;70.40
6758;DHT22;3416;53.074;8.822;2023-02-28T13:57:48;8.70;71.80
6758;DHT22;3416;53.074;8.822;2023-02-28T14:00:26;8.70;72.90
6758;DHT22;3416;53.074;8.822;2023-02-28T14:06:08;8.70;71.50
6758;DHT22;3416;53.074;8.822;2023-02-28T14:08:37;8.60;71.90
6758;DHT22;3416;53.074;8.822;2023-02-28T14:11:06;8.60;72.50
6758;DHT22;3416;53.074;8.822;2023-02-28T14:13:39;8.80;72.90
6758;DHT22;3416;53.074;8.822;2023-02-28T14:16:12;8.70;73.10
6758;DHT22;3416;53.074;8.822;2023-02-28T14:18:42;8.90;71.60
6758;DHT22;3416;53.074;8.822;2023-02-28T14:21:21;8.90;71.10
6758;DHT22;3416;53.074;8.822;2023-02-28T14:24:16;8.90;70.80
6758;DHT22;3416;53.074;8.822;2023-02-28T14:30:14;8.80;70.00
6758;DHT22;3416;53.074;8.822;2023-02-28T14:32:46;8.80;70.20
6758;DHT22;3416;53.074;8.822;2023-02-28T14:35:22;8.80;69.80
6758;DHT22;3416;53.074;8.822;2023-02-28T14:37:54;8.70;69.90
6758;DHT22;3416;53.074;8.822;2023-02-28T14:40:26;8.70;69.80
6758;DHT22;3416;53.074;8.822;2023-02-28T14:42:56;8.60;69.50
6758;DHT22;3416;53.074;8.822;2023-02-28T14:45:28;8.70;69.90
6758;DHT22;3416;53.074;8.822;2023-02-28T14:47:58;8.60;70.30
6758;DHT22;3416;53.074;8.822;2023-02-28T14:50:29;8.50;70.90
6758;DHT22;3416;53.074;8.822;2023-02-28T14:52:58;8.60;72.00
6758;DHT22;3416;53.074;8.822;2023-02-28T14:55:28;8.50;72.10
6758;DHT22;3416;53.074;8.822;2023-02-28T14:57:56;8.80;72.50
6758;DHT22;3416;53.074;8.822;2023-02-28T15:00:25;8.80;72.90
6758;DHT22;3416;53.074;8.822;2023-02-28T15:02:53;8.80;73.50
6758;DHT22;3416;53.074;8.822;2023-02-28T15:05:28;8.80;73.50
6758;DHT22;3416;53.074;8.822;2023-02-28T15:08:05;8.90;73.60
6758;DHT22;3416;53.074;8.822;2023-02-28T15:10:33;8.90;72.50
6758;DHT22;3416;53.074;8.822;2023-02-28T15:13:04;8.90;73.10
6758;DHT22;3416;53.074;8.822;2023-02-28T15:15:41;8.90;73.00
6758;DHT22;3416;53.074;8.822;2023-02-28T15:18:15;8.90;72.70
6758;DHT22;3416;53.074;8.822;2023-02-28T15:20:47;8.90;72.00
6758;DHT22;3416;53.074;8.822;2023-02-28T15:23:15;8.80;72.30
6758;DHT22;3416;53.074;8.822;2023-02-28T15:25:42;8.70;72.60
6758;DHT22;3416;53.074;8.822;2023-02-28T15:28:15;8.60;73.00
6758;DHT22;3416;53.074;8.822;2023-02-28T15:30:54;8.50;73.40
6758;DHT22;3416;53.074;8.822;2023-02-28T15:33:26;8.60;73.10
6758;DHT22;3416;53.074;8.822;2023-02-28T15:36:13;8.60;73.00
6758;DHT22;3416;53.074;8.822;2023-02-28T15:38:42;8.50;72.40
6758;DHT22;3416;53.074;8.822;2023-02-28T15:41:22;8.40;72.30
6758;DHT22;3416;53.074;8.822;2023-02-28T15:44:14;8.30;72.30
6758;DHT22;3416;53.074;8.822;2023-02-28T15:46:53;8.20;72.60
6758;DHT22;3416;53.074;8.822;2023-02-28T15:49:22;8.10;73.00
6758;DHT22;3416;53.074;8.822;2023-02-28T15:51:51;8.10;72.70
6758;DHT22;3416;53.074;8.822;2023-02-28T15:54:23;8.00;73.30
6758;DHT22;3416;53.074;8.822;2023-02-28T15:56:55;8.00;73.80
6758;DHT22;3416;53.074;8.822;2023-02-28T15:59:25;8.00;73.80
6758;DHT22;3416;53.074;8.822;2023-02-28T16:02:16;8.00;74.30
6758;DHT22;3416;53.074;8.822;2023-02-28T16:04:56;7.90;74.20
6758;DHT22;3416;53.074;8.822;2023-02-28T16:07:28;8.00;74.20
6758;DHT22;3416;53.074;8.822;2023-02-28T16:09:55;8.00;74.10
6758;DHT22;3416;53.074;8.822;2023-02-28T16:12:26;7.90;74.10
6758;DHT22;3416;53.074;8.822;2023-02-28T16:14:54;7.80;74.50
6758;DHT22;3416;53.074;8.822;2023-02-28T16:17:24;7.70;75.00
6758;DHT22;3416;53.074;8.822;2023-02-28T16:19:52;7.70;75.30
6758;DHT22;3416;53.074;8.822;2023-02-28T16:22:20;7.60;75.70
6758;DHT22;3416;53.074;8.822;2023-02-28T16:24:48;7.60;76.00
6758;DHT22;3416;53.074;8.822;2023-02-28T16:27:19;7.50;76.20
6758;DHT22;3416;53.074;8.822;2023-02-28T16:29:47;7.60;76.80
6758;DHT22;3416;53.074;8.822;2023-02-28T16:32:15;7.60;76.80
6758;DHT22;3416;53.074;8.822;2023-02-28T16:34:43;7.60;77.10
6758;DHT22;3416;53.074;8.822;2023-02-28T16:37:17;7.60;78.20
6758;DHT22;3416;53.074;8.822;2023-02-28T16:39:45;7.60;77.50
6758;DHT22;3416;53.074;8.822;2023-02-28T16:42:22;7.60;77.80
6758;DHT22;3416;53.074;8.822;2023-02-28T16:44:50;7.60;77.70
6758;DHT22;3416;53.074;8.822;2023-02-28T16:47:19;7.60;77.60
6758;DHT22;3416;53.074;8.822;2023-02-28T16:49:46;7.50;77.60
6758;DHT22;3416;53.074;8.822;2023-02-28T16:52:14;7.40;77.70
6758;DHT22;3416;53.074;8.822;2023-02-28T16:54:41;7.30;78.40
6758;DHT22;3416;53.074;8.822;2023-02-28T16:57:19;7.30;78.80
6758;DHT22;3416;53.074;8.822;2023-02-28T16:59:47;7.30;78.70
6758;DHT22;3416;53.074;8.822;2023-02-28T17:02:25;7.40;79.10
6758;DHT22;3416;53.074;8.822;2023-02-28T17:04:52;7.20;79.50
6758;DHT22;3416;53.074;8.822;2023-02-28T17:07:19;7.20;79.40
6758;DHT22;3416;53.074;8.822;2023-02-28T17:09:46;7.10;79.50
6758;DHT22;3416;53.074;8.822;2023-02-28T17:12:13;7.10;80.20
6758;DHT22;3416;53.074;8.822;2023-02-28T17:14:41;7.10;80.70
6758;DHT22;3416;53.074;8.822;2023-02-28T17:17:10;7.00;81.10
6758;DHT22;3416;53.074;8.822;2023-02-28T17:19:42;6.90;81.60